Gilleleje, Denmark
Current Conditions -  °F | °C
As of 1:20 PM on Thursday 29 Jan 2015 (Local Time) from ESTA Reporting Station
Broken Clouds Broken Clouds  
Wind Chill: -3°   Ceiling: 1200
Heat Index:   Visibility: 6mi
Dew Point:   Wind: 18mph
Humidity: 81%   Direction: 190°S
Pressure: 28.85"   Gusts: NA
Location:  56.12°N, 12.31°E
Report Text: ESTA 291220Z 19016KT 9999 BKN012 BKN023 03/M00 Q0977
Loading
Personal Weather Stations






























Interactive Weather Map New forecast layout! Learn more

10-Day Weather Forecast

Advertisements
Track Severe Weather on mobile